sensor_id;sensor_type;location;lat;lon;timestamp;pressure;altitude;pressure_sealevel;temperature;humidity
17505;BME280;8870;50.950;11.762;2022-09-21T00:04:00;99227.59;;;5.80;100.00
17505;BME280;8870;50.950;11.762;2022-09-21T00:09:34;99237.75;;;5.75;100.00
17505;BME280;8870;50.950;11.762;2022-09-21T00:14:52;99242.81;;;5.67;100.00
17505;BME280;8870;50.950;11.762;2022-09-21T00:20:24;99241.31;;;5.63;100.00
17505;BME280;8870;50.950;11.762;2022-09-21T00:25:46;99236.41;;;5.57;100.00
17505;BME280;8870;50.950;11.762;2022-09-21T00:31:17;99241.97;;;5.53;100.00
17505;BME280;8870;50.950;11.762;2022-09-21T00:36:35;99245.72;;;5.51;100.00
17505;BME280;8870;50.950;11.762;2022-09-21T00:42:13;99246.78;;;5.48;100.00
17505;BME280;8870;50.950;11.762;2022-09-21T00:47:35;99249.69;;;5.45;100.00
17505;BME280;8870;50.950;11.762;2022-09-21T00:53:08;99255.44;;;5.39;100.00
17505;BME280;8870;50.950;11.762;2022-09-21T00:58:32;99260.28;;;5.34;100.00
17505;BME280;8870;50.950;11.762;2022-09-21T01:04:04;99270.22;;;5.32;100.00
17505;BME280;8870;50.950;11.762;2022-09-21T01:09:22;99273.63;;;5.21;100.00
17505;BME280;8870;50.950;11.762;2022-09-21T01:15:08;99272.22;;;5.15;100.00
17505;BME280;8870;50.950;11.762;2022-09-21T01:26:27;99273.63;;;5.08;100.00
17505;BME280;8870;50.950;11.762;2022-09-21T01:32:07;99274.00;;;5.02;100.00
17505;BME280;8870;50.950;11.762;2022-09-21T01:37:44;99272.53;;;4.98;100.00
17505;BME280;8870;50.950;11.762;2022-09-21T01:43:04;99272.75;;;4.94;100.00
17505;BME280;8870;50.950;11.762;2022-09-21T01:48:44;99288.97;;;4.91;100.00
17505;BME280;8870;50.950;11.762;2022-09-21T01:54:06;99287.47;;;4.87;100.00
17505;BME280;8870;50.950;11.762;2022-09-21T01:59:46;99284.25;;;4.82;100.00
17505;BME280;8870;50.950;11.762;2022-09-21T02:05:17;99280.81;;;4.80;100.00
17505;BME280;8870;50.950;11.762;2022-09-21T02:10:50;99280.59;;;4.70;100.00
17505;BME280;8870;50.950;11.762;2022-09-21T02:16:28;99280.78;;;4.67;100.00
17505;BME280;8870;50.950;11.762;2022-09-21T02:22:08;99288.81;;;4.67;100.00
17505;BME280;8870;50.950;11.762;2022-09-21T02:27:33;99294.22;;;4.66;100.00
17505;BME280;8870;50.950;11.762;2022-09-21T02:33:11;99296.38;;;4.60;100.00
17505;BME280;8870;50.950;11.762;2022-09-21T02:38:34;99292.38;;;4.53;100.00
17505;BME280;8870;50.950;11.762;2022-09-21T02:44:11;99304.88;;;4.53;100.00
17505;BME280;8870;50.950;11.762;2022-09-21T02:49:33;99290.88;;;4.49;100.00
17505;BME280;8870;50.950;11.762;2022-09-21T02:55:08;99301.84;;;4.44;100.00
17505;BME280;8870;50.950;11.762;2022-09-21T03:00:27;99299.28;;;4.43;100.00
17505;BME280;8870;50.950;11.762;2022-09-21T03:05:58;99302.91;;;4.42;100.00
17505;BME280;8870;50.950;11.762;2022-09-21T03:11:20;99301.22;;;4.41;100.00
17505;BME280;8870;50.950;11.762;2022-09-21T03:16:51;99298.63;;;4.39;100.00
17505;BME280;8870;50.950;11.762;2022-09-21T03:22:09;99303.41;;;4.34;100.00
17505;BME280;8870;50.950;11.762;2022-09-21T03:27:45;99308.19;;;4.29;100.00
17505;BME280;8870;50.950;11.762;2022-09-21T03:33:04;99308.47;;;4.24;100.00
17505;BME280;8870;50.950;11.762;2022-09-21T03:38:36;99312.00;;;4.25;100.00
17505;BME280;8870;50.950;11.762;2022-09-21T03:43:57;99318.38;;;4.22;100.00
17505;BME280;8870;50.950;11.762;2022-09-21T03:49:28;99317.75;;;4.19;100.00
17505;BME280;8870;50.950;11.762;2022-09-21T03:54:46;99320.69;;;4.14;100.00
17505;BME280;8870;50.950;11.762;2022-09-21T04:00:21;99318.63;;;4.05;100.00
17505;BME280;8870;50.950;11.762;2022-09-21T04:05:38;99328.91;;;3.96;100.00
17505;BME280;8870;50.950;11.762;2022-09-21T04:11:10;99332.75;;;3.92;100.00
17505;BME280;8870;50.950;11.762;2022-09-21T04:16:31;99325.75;;;3.90;100.00
17505;BME280;8870;50.950;11.762;2022-09-21T04:22:02;99335.47;;;3.91;100.00
17505;BME280;8870;50.950;11.762;2022-09-21T04:27:20;99337.31;;;3.90;100.00
17505;BME280;8870;50.950;11.762;2022-09-21T04:32:54;99342.44;;;3.93;100.00
17505;BME280;8870;50.950;11.762;2022-09-21T04:38:11;99341.47;;;3.94;100.00
17505;BME280;8870;50.950;11.762;2022-09-21T04:43:43;99346.81;;;3.94;100.00
17505;BME280;8870;50.950;11.762;2022-09-21T04:49:04;99348.72;;;3.92;100.00
17505;BME280;8870;50.950;11.762;2022-09-21T04:54:35;99354.91;;;3.93;100.00
17505;BME280;8870;50.950;11.762;2022-09-21T04:59:53;99355.78;;;3.93;100.00
17505;BME280;8870;50.950;11.762;2022-09-21T05:05:28;99360.91;;;3.96;100.00
17505;BME280;8870;50.950;11.762;2022-09-21T05:10:45;99361.47;;;3.87;100.00
17505;BME280;8870;50.950;11.762;2022-09-21T05:16:17;99367.41;;;3.92;100.00
17505;BME280;8870;50.950;11.762;2022-09-21T05:21:38;99370.13;;;3.91;100.00
17505;BME280;8870;50.950;11.762;2022-09-21T05:27:10;99366.63;;;3.90;100.00
17505;BME280;8870;50.950;11.762;2022-09-21T05:32:40;99376.06;;;3.96;100.00
17505;BME280;8870;50.950;11.762;2022-09-21T05:38:17;99382.03;;;3.99;100.00
17505;BME280;8870;50.950;11.762;2022-09-21T05:43:36;99384.81;;;3.98;100.00
17505;BME280;8870;50.950;11.762;2022-09-21T05:49:16;99385.28;;;4.05;100.00
17505;BME280;8870;50.950;11.762;2022-09-21T05:54:48;99402.31;;;4.02;100.00
17505;BME280;8870;50.950;11.762;2022-09-21T06:00:22;99402.44;;;4.00;100.00
17505;BME280;8870;50.950;11.762;2022-09-21T06:05:41;99411.97;;;4.05;100.00
17505;BME280;8870;50.950;11.762;2022-09-21T06:11:16;99414.63;;;4.05;100.00
17505;BME280;8870;50.950;11.762;2022-09-21T06:16:38;99411.75;;;4.08;100.00
17505;BME280;8870;50.950;11.762;2022-09-21T06:22:09;99414.13;;;4.12;100.00
17505;BME280;8870;50.950;11.762;2022-09-21T06:27:30;99416.13;;;4.23;100.00
17505;BME280;8870;50.950;11.762;2022-09-21T06:33:02;99410.97;;;4.20;100.00
17505;BME280;8870;50.950;11.762;2022-09-21T06:38:21;99418.69;;;4.25;100.00
17505;BME280;8870;50.950;11.762;2022-09-21T06:43:55;99428.53;;;4.39;100.00
17505;BME280;8870;50.950;11.762;2022-09-21T06:49:13;99421.28;;;4.41;100.00
17505;BME280;8870;50.950;11.762;2022-09-21T06:54:44;99426.88;;;4.51;100.00
17505;BME280;8870;50.950;11.762;2022-09-21T07:00:07;99429.88;;;4.59;100.00
17505;BME280;8870;50.950;11.762;2022-09-21T07:05:38;99428.44;;;4.68;100.00
17505;BME280;8870;50.950;11.762;2022-09-21T07:11:03;99437.19;;;4.84;100.00
17505;BME280;8870;50.950;11.762;2022-09-21T07:16:37;99442.78;;;4.94;100.00
17505;BME280;8870;50.950;11.762;2022-09-21T07:21:54;99451.94;;;5.04;100.00
17505;BME280;8870;50.950;11.762;2022-09-21T07:27:27;99463.78;;;5.13;100.00
17505;BME280;8870;50.950;11.762;2022-09-21T07:32:48;99452.53;;;5.22;100.00
17505;BME280;8870;50.950;11.762;2022-09-21T07:38:19;99466.75;;;5.36;100.00
17505;BME280;8870;50.950;11.762;2022-09-21T07:43:37;99468.97;;;5.57;100.00
17505;BME280;8870;50.950;11.762;2022-09-21T07:49:12;99468.16;;;5.69;100.00
17505;BME280;8870;50.950;11.762;2022-09-21T07:54:30;99472.00;;;5.78;100.00
17505;BME280;8870;50.950;11.762;2022-09-21T08:00:03;99473.63;;;5.93;100.00
17505;BME280;8870;50.950;11.762;2022-09-21T08:05:26;99473.03;;;6.15;100.00
17505;BME280;8870;50.950;11.762;2022-09-21T08:11:01;99478.78;;;6.35;100.00
17505;BME280;8870;50.950;11.762;2022-09-21T08:16:20;99487.56;;;6.63;100.00
17505;BME280;8870;50.950;11.762;2022-09-21T08:21:54;99487.09;;;6.69;100.00
17505;BME280;8870;50.950;11.762;2022-09-21T08:27:25;99488.13;;;6.92;100.00
17505;BME280;8870;50.950;11.762;2022-09-21T08:32:43;99491.28;;;7.11;100.00
17505;BME280;8870;50.950;11.762;2022-09-21T08:38:18;99493.56;;;7.28;100.00
17505;BME280;8870;50.950;11.762;2022-09-21T08:43:39;99494.03;;;7.46;100.00
17505;BME280;8870;50.950;11.762;2022-09-21T08:49:12;99497.41;;;7.72;100.00
17505;BME280;8870;50.950;11.762;2022-09-21T08:54:41;99502.97;;;7.94;100.00
17505;BME280;8870;50.950;11.762;2022-09-21T09:00:15;99494.59;;;8.21;100.00
17505;BME280;8870;50.950;11.762;2022-09-21T09:05:42;99476.56;;;8.46;100.00
17505;BME280;8870;50.950;11.762;2022-09-21T09:11:29;99470.84;;;8.73;100.00
17505;BME280;8870;50.950;11.762;2022-09-21T09:16:59;99453.22;;;9.03;100.00
17505;BME280;8870;50.950;11.762;2022-09-21T09:22:36;99446.16;;;9.35;100.00
17505;BME280;8870;50.950;11.762;2022-09-21T09:28:00;99426.69;;;9.64;100.00
17505;BME280;8870;50.950;11.762;2022-09-21T09:33:43;99402.19;;;9.88;100.00
17505;BME280;8870;50.950;11.762;2022-09-21T09:39:10;99403.16;;;10.08;100.00
17505;BME280;8870;50.950;11.762;2022-09-21T09:45:12;99395.78;;;10.31;100.00
17505;BME280;8870;50.950;11.762;2022-09-21T09:50:36;99393.63;;;10.66;100.00
17505;BME280;8870;50.950;11.762;2022-09-21T09:56:09;99389.00;;;10.88;100.00
17505;BME280;8870;50.950;11.762;2022-09-21T10:01:39;99382.34;;;11.12;100.00
17505;BME280;8870;50.950;11.762;2022-09-21T10:07:17;99371.44;;;11.43;100.00
17505;BME280;8870;50.950;11.762;2022-09-21T10:12:36;99367.97;;;11.70;100.00
17505;BME280;8870;50.950;11.762;2022-09-21T10:18:15;99359.09;;;11.97;100.00
17505;BME280;8870;50.950;11.762;2022-09-21T10:23:36;99355.56;;;12.35;100.00
17505;BME280;8870;50.950;11.762;2022-09-21T10:29:18;99343.81;;;12.54;100.00
17505;BME280;8870;50.950;11.762;2022-09-21T10:34:42;99345.13;;;12.68;100.00
17505;BME280;8870;50.950;11.762;2022-09-21T10:40:34;99346.03;;;12.58;100.00
17505;BME280;8870;50.950;11.762;2022-09-21T10:45:55;99338.63;;;12.60;100.00
17505;BME280;8870;50.950;11.762;2022-09-21T10:51:30;99336.63;;;12.62;100.00
17505;BME280;8870;50.950;11.762;2022-09-21T10:57:06;99319.75;;;12.78;100.00
17505;BME280;8870;50.950;11.762;2022-09-21T11:02:33;99331.34;;;13.07;100.00
17505;BME280;8870;50.950;11.762;2022-09-21T11:08:14;99331.03;;;13.10;100.00
17505;BME280;8870;50.950;11.762;2022-09-21T11:13:35;99328.47;;;12.90;100.00
17505;BME280;8870;50.950;11.762;2022-09-21T11:19:13;99329.38;;;12.81;100.00
17505;BME280;8870;50.950;11.762;2022-09-21T11:24:44;99328.56;;;12.99;100.00
17505;BME280;8870;50.950;11.762;2022-09-21T11:30:29;99320.34;;;13.08;100.00
17505;BME280;8870;50.950;11.762;2022-09-21T11:35:55;99320.28;;;13.18;100.00
17505;BME280;8870;50.950;11.762;2022-09-21T11:41:52;99321.78;;;13.39;100.00
17505;BME280;8870;50.950;11.762;2022-09-21T11:47:20;99313.66;;;13.57;100.00
17505;BME280;8870;50.950;11.762;2022-09-21T11:53:05;99309.56;;;13.79;100.00
17505;BME280;8870;50.950;11.762;2022-09-21T11:58:48;99305.59;;;13.92;100.00
17505;BME280;8870;50.950;11.762;2022-09-21T12:04:30;99304.34;;;14.21;100.00
17505;BME280;8870;50.950;11.762;2022-09-21T12:16:03;99283.25;;;14.49;100.00
17505;BME280;8870;50.950;11.762;2022-09-21T12:21:38;99285.22;;;14.82;100.00
17505;BME280;8870;50.950;11.762;2022-09-21T12:27:05;99279.66;;;14.91;100.00
17505;BME280;8870;50.950;11.762;2022-09-21T12:32:49;99275.25;;;14.90;100.00
17505;BME280;8870;50.950;11.762;2022-09-21T12:38:15;99275.41;;;14.89;100.00
17505;BME280;8870;50.950;11.762;2022-09-21T12:43:50;99285.16;;;14.65;100.00
17505;BME280;8870;50.950;11.762;2022-09-21T12:49:16;99288.41;;;14.17;100.00
17505;BME280;8870;50.950;11.762;2022-09-21T12:54:55;99284.44;;;13.95;100.00
17505;BME280;8870;50.950;11.762;2022-09-21T13:00:18;99281.13;;;13.83;100.00
17505;BME280;8870;50.950;11.762;2022-09-21T13:11:49;99278.09;;;13.78;100.00
17505;BME280;8870;50.950;11.762;2022-09-21T13:17:22;99276.69;;;13.74;100.00
17505;BME280;8870;50.950;11.762;2022-09-21T13:22:43;99267.78;;;13.82;100.00
17505;BME280;8870;50.950;11.762;2022-09-21T13:28:19;99266.59;;;13.84;100.00
17505;BME280;8870;50.950;11.762;2022-09-21T13:33:38;99265.34;;;14.05;100.00
17505;BME280;8870;50.950;11.762;2022-09-21T13:39:17;99253.81;;;14.03;100.00
17505;BME280;8870;50.950;11.762;2022-09-21T13:44:39;99252.88;;;14.29;100.00
17505;BME280;8870;50.950;11.762;2022-09-21T13:50:20;99253.66;;;14.64;100.00
17505;BME280;8870;50.950;11.762;2022-09-21T13:55:59;99240.47;;;14.94;100.00
17505;BME280;8870;50.950;11.762;2022-09-21T14:01:34;99239.56;;;15.43;100.00
17505;BME280;8870;50.950;11.762;2022-09-21T14:07:03;99236.72;;;15.28;100.00
17505;BME280;8870;50.950;11.762;2022-09-21T14:12:40;99230.88;;;15.64;100.00
17505;BME280;8870;50.950;11.762;2022-09-21T14:24:20;99228.03;;;15.41;100.00
17505;BME280;8870;50.950;11.762;2022-09-21T14:29:44;99233.66;;;15.31;100.00
17505;BME280;8870;50.950;11.762;2022-09-21T14:35:25;99232.69;;;15.07;100.00
17505;BME280;8870;50.950;11.762;2022-09-21T14:40:46;99228.94;;;14.84;100.00
17505;BME280;8870;50.950;11.762;2022-09-21T14:46:45;99228.22;;;14.65;100.00
17505;BME280;8870;50.950;11.762;2022-09-21T14:52:15;99224.47;;;14.66;100.00
17505;BME280;8870;50.950;11.762;2022-09-21T14:58:05;99219.09;;;14.91;100.00
17505;BME280;8870;50.950;11.762;2022-09-21T15:03:42;99214.88;;;15.05;100.00
17505;BME280;8870;50.950;11.762;2022-09-21T15:09:33;99216.53;;;15.31;100.00
17505;BME280;8870;50.950;11.762;2022-09-21T15:15:22;99205.75;;;15.62;100.00
17505;BME280;8870;50.950;11.762;2022-09-21T15:21:01;99206.66;;;16.02;100.00
17505;BME280;8870;50.950;11.762;2022-09-21T15:26:21;99196.53;;;16.51;100.00
17505;BME280;8870;50.950;11.762;2022-09-21T15:31:53;99191.69;;;16.61;100.00
17505;BME280;8870;50.950;11.762;2022-09-21T15:37:14;99200.44;;;16.72;100.00
17505;BME280;8870;50.950;11.762;2022-09-21T15:42:58;99195.22;;;16.85;92.78
17505;BME280;8870;50.950;11.762;2022-09-21T15:48:19;99193.91;;;16.81;98.73
17505;BME280;8870;50.950;11.762;2022-09-21T15:53:59;99194.44;;;16.76;93.32
17505;BME280;8870;50.950;11.762;2022-09-21T15:59:22;99201.69;;;16.84;100.00
17505;BME280;8870;50.950;11.762;2022-09-21T16:04:53;99191.59;;;16.93;99.17
17505;BME280;8870;50.950;11.762;2022-09-21T16:16:16;99189.41;;;16.42;100.00
17505;BME280;8870;50.950;11.762;2022-09-21T16:21:34;99194.00;;;16.64;100.00
17505;BME280;8870;50.950;11.762;2022-09-21T16:27:05;99198.97;;;16.61;100.00
17505;BME280;8870;50.950;11.762;2022-09-21T16:32:30;99197.81;;;16.55;100.00
17505;BME280;8870;50.950;11.762;2022-09-21T16:38:02;99204.03;;;16.41;100.00
17505;BME280;8870;50.950;11.762;2022-09-21T16:43:24;99199.41;;;16.18;100.00
17505;BME280;8870;50.950;11.762;2022-09-21T16:48:59;99204.53;;;15.65;100.00
17505;BME280;8870;50.950;11.762;2022-09-21T16:54:18;99196.63;;;15.47;100.00
17505;BME280;8870;50.950;11.762;2022-09-21T16:59:54;99206.88;;;15.03;100.00
17505;BME280;8870;50.950;11.762;2022-09-21T17:05:18;99206.22;;;14.76;100.00
17505;BME280;8870;50.950;11.762;2022-09-21T17:10:50;99205.50;;;14.66;100.00
17505;BME280;8870;50.950;11.762;2022-09-21T17:16:09;99205.66;;;14.48;100.00
17505;BME280;8870;50.950;11.762;2022-09-21T17:21:42;99213.25;;;14.28;100.00
17505;BME280;8870;50.950;11.762;2022-09-21T17:27:07;99209.38;;;13.87;100.00
17505;BME280;8870;50.950;11.762;2022-09-21T17:32:40;99204.59;;;13.73;100.00
17505;BME280;8870;50.950;11.762;2022-09-21T17:38:06;99208.25;;;13.55;100.00
17505;BME280;8870;50.950;11.762;2022-09-21T17:43:43;99215.00;;;13.33;100.00
17505;BME280;8870;50.950;11.762;2022-09-21T17:49:04;99212.66;;;13.12;100.00
17505;BME280;8870;50.950;11.762;2022-09-21T17:54:38;99212.84;;;12.92;100.00
17505;BME280;8870;50.950;11.762;2022-09-21T18:00:03;99217.59;;;12.72;100.00
17505;BME280;8870;50.950;11.762;2022-09-21T18:05:36;99224.34;;;12.50;100.00
17505;BME280;8870;50.950;11.762;2022-09-21T18:11:04;99227.31;;;12.29;100.00
17505;BME280;8870;50.950;11.762;2022-09-21T18:16:43;99233.59;;;12.01;100.00
17505;BME280;8870;50.950;11.762;2022-09-21T18:22:21;99227.56;;;11.80;100.00
17505;BME280;8870;50.950;11.762;2022-09-21T18:28:08;99236.44;;;11.62;100.00
17505;BME280;8870;50.950;11.762;2022-09-21T18:33:35;99236.22;;;11.46;100.00
17505;BME280;8870;50.950;11.762;2022-09-21T18:39:21;99242.78;;;11.33;100.00
17505;BME280;8870;50.950;11.762;2022-09-21T18:44:49;99243.38;;;11.17;100.00
17505;BME280;8870;50.950;11.762;2022-09-21T18:50:31;99249.78;;;10.97;100.00
17505;BME280;8870;50.950;11.762;2022-09-21T18:55:53;99250.53;;;10.79;100.00
17505;BME280;8870;50.950;11.762;2022-09-21T19:01:28;99256.47;;;10.53;100.00
17505;BME280;8870;50.950;11.762;2022-09-21T19:06:53;99261.28;;;10.40;100.00
17505;BME280;8870;50.950;11.762;2022-09-21T19:12:29;99261.22;;;10.30;100.00
17505;BME280;8870;50.950;11.762;2022-09-21T19:18:02;99253.41;;;10.17;100.00
17505;BME280;8870;50.950;11.762;2022-09-21T19:23:55;99263.44;;;10.05;100.00
17505;BME280;8870;50.950;11.762;2022-09-21T19:35:22;99259.84;;;9.85;100.00
17505;BME280;8870;50.950;11.762;2022-09-21T19:40:41;99259.06;;;9.73;100.00
17505;BME280;8870;50.950;11.762;2022-09-21T19:46:21;99261.84;;;9.62;100.00
17505;BME280;8870;50.950;11.762;2022-09-21T19:51:47;99264.63;;;9.50;100.00
17505;BME280;8870;50.950;11.762;2022-09-21T19:57:21;99268.13;;;9.41;100.00
17505;BME280;8870;50.950;11.762;2022-09-21T20:03:01;99265.50;;;9.30;100.00
17505;BME280;8870;50.950;11.762;2022-09-21T20:08:41;99261.66;;;9.22;100.00
17505;BME280;8870;50.950;11.762;2022-09-21T20:14:17;99264.72;;;9.18;100.00
17505;BME280;8870;50.950;11.762;2022-09-21T20:19:54;99264.41;;;9.11;100.00
17505;BME280;8870;50.950;11.762;2022-09-21T20:25:20;99264.09;;;9.04;100.00
17505;BME280;8870;50.950;11.762;2022-09-21T20:30:52;99269.13;;;8.98;100.00
17505;BME280;8870;50.950;11.762;2022-09-21T20:36:12;99263.41;;;8.91;100.00
17505;BME280;8870;50.950;11.762;2022-09-21T20:41:46;99263.09;;;8.84;100.00
17505;BME280;8870;50.950;11.762;2022-09-21T20:47:07;99261.03;;;8.76;100.00
17505;BME280;8870;50.950;11.762;2022-09-21T20:52:40;99266.06;;;8.70;100.00
17505;BME280;8870;50.950;11.762;2022-09-21T20:58:02;99259.63;;;8.61;100.00
17505;BME280;8870;50.950;11.762;2022-09-21T21:03:34;99263.94;;;8.52;100.00
17505;BME280;8870;50.950;11.762;2022-09-21T21:09:07;99257.56;;;8.42;100.00
17505;BME280;8870;50.950;11.762;2022-09-21T21:14:40;99261.03;;;8.32;100.00
17505;BME280;8870;50.950;11.762;2022-09-21T21:19:59;99269.59;;;8.26;100.00
17505;BME280;8870;50.950;11.762;2022-09-21T21:25:30;99265.59;;;8.21;100.00
17505;BME280;8870;50.950;11.762;2022-09-21T21:30:53;99259.00;;;8.13;100.00
17505;BME280;8870;50.950;11.762;2022-09-21T21:36:25;99258.63;;;8.07;100.00
17505;BME280;8870;50.950;11.762;2022-09-21T21:41:43;99267.44;;;7.97;100.00
17505;BME280;8870;50.950;11.762;2022-09-21T21:47:17;99265.75;;;7.85;100.00
17505;BME280;8870;50.950;11.762;2022-09-21T21:52:47;99272.09;;;7.72;100.00
17505;BME280;8870;50.950;11.762;2022-09-21T21:58:18;99266.25;;;7.67;100.00
17505;BME280;8870;50.950;11.762;2022-09-21T22:03:40;99268.56;;;7.61;100.00
17505;BME280;8870;50.950;11.762;2022-09-21T22:09:12;99268.78;;;7.58;100.00
17505;BME280;8870;50.950;11.762;2022-09-21T22:14:37;99274.41;;;7.54;100.00
17505;BME280;8870;50.950;11.762;2022-09-21T22:20:11;99266.84;;;7.48;100.00
17505;BME280;8870;50.950;11.762;2022-09-21T22:25:30;99264.25;;;7.47;100.00
17505;BME280;8870;50.950;11.762;2022-09-21T22:31:02;99261.84;;;7.44;100.00
17505;BME280;8870;50.950;11.762;2022-09-21T22:36:24;99263.06;;;7.39;100.00
17505;BME280;8870;50.950;11.762;2022-09-21T22:41:55;99260.88;;;7.33;100.00
17505;BME280;8870;50.950;11.762;2022-09-21T22:47:14;99265.59;;;7.30;100.00
17505;BME280;8870;50.950;11.762;2022-09-21T22:52:47;99257.19;;;7.23;100.00
17505;BME280;8870;50.950;11.762;2022-09-21T22:58:05;99260.47;;;7.15;100.00
17505;BME280;8870;50.950;11.762;2022-09-21T23:03:37;99253.75;;;7.09;100.00
17505;BME280;8870;50.950;11.762;2022-09-21T23:08:59;99253.38;;;7.03;100.00
17505;BME280;8870;50.950;11.762;2022-09-21T23:14:30;99253.97;;;6.95;100.00
17505;BME280;8870;50.950;11.762;2022-09-21T23:20:02;99257.84;;;6.91;100.00
17505;BME280;8870;50.950;11.762;2022-09-21T23:25:22;99261.00;;;6.85;100.00
17505;BME280;8870;50.950;11.762;2022-09-21T23:30:55;99266.41;;;6.72;100.00
17505;BME280;8870;50.950;11.762;2022-09-21T23:36:16;99259.06;;;6.62;100.00
17505;BME280;8870;50.950;11.762;2022-09-21T23:41:50;99264.91;;;6.56;100.00
17505;BME280;8870;50.950;11.762;2022-09-21T23:47:09;99255.59;;;6.49;100.00
17505;BME280;8870;50.950;11.762;2022-09-21T23:52:40;99261.09;;;6.47;100.00
17505;BME280;8870;50.950;11.762;2022-09-21T23:58:01;99259.72;;;6.42;100.00
